METAR Formatted Surface Weather Observation
Issued by NWS

Home | Current Version | Previous Version | Text Only | Print | Product List | Glossary On
Versions: 1 2
000
SAUS44 KCRP 230957
MTRNOG
METAR KNOG 230956Z AUTO 14006KT 5SM BR FEW017 24/24 A3004 RMK AO2
SLP152 T02440239 TSNO $



USA.gov is the U.S. government's official web portal to all federal, state and local government web resources and services.